Time;durP1;ratioP1;P1;durP2;ratioP2;P2;SDS_P1;SDS_P2;PMS_P1;PMS_P2;Temp;Humidity;BMP_temperature;BMP_pressure;BME280_temperature;BME280_humidity;BME280_pressure;Samples;Min_cycle;Max_cycle;Signal;HPM_P1;HPM_P2
2023/02/20 00:00:09;;;;;;;10.23;3.92;;;6.50;99.90;;;;;;466261;255;28040;-81
2023/02/20 00:02:10;;;;;;;5.90;3.43;;;6.40;99.90;;;;;;466216;255;27596;-82
2023/02/20 00:04:11;;;;;;;5.28;3.55;;;6.40;99.90;;;;;;466183;255;29068;-81
2023/02/20 00:06:13;;;;;;;8.48;4.07;;;6.40;99.90;;;;;;466181;252;27990;-81
2023/02/20 00:08:14;;;;;;;7.03;4.55;;;6.30;99.90;;;;;;466270;255;28174;-80
2023/02/20 00:10:15;;;;;;;8.02;3.70;;;6.30;99.90;;;;;;466263;253;27645;-81
2023/02/20 00:12:16;;;;;;;6.12;3.80;;;6.30;99.90;;;;;;466062;255;27661;-78
2023/02/20 00:14:18;;;;;;;9.13;4.55;;;6.30;99.90;;;;;;466266;255;27685;-78
2023/02/20 00:16:19;;;;;;;6.23;4.20;;;6.20;99.90;;;;;;466276;253;27674;-79
2023/02/20 00:18:20;;;;;;;9.88;4.65;;;6.20;99.90;;;;;;466281;255;28984;-79
2023/02/20 00:20:21;;;;;;;6.05;3.67;;;6.20;99.90;;;;;;466252;255;29069;-80
2023/02/20 00:22:23;;;;;;;6.90;4.45;;;6.20;99.90;;;;;;466299;255;28013;-78
2023/02/20 00:24:24;;;;;;;9.30;4.73;;;6.10;99.90;;;;;;466277;255;27578;-81
2023/02/20 00:26:25;;;;;;;10.40;4.18;;;6.10;99.90;;;;;;466248;255;28937;-80
2023/02/20 00:28:28;;;;;;;9.80;5.50;;;5.90;99.90;;;;;;465649;255;27613;-81
2023/02/20 00:30:28;;;;;;;7.50;4.93;;;6.00;99.90;;;;;;465332;254;27614;-81
2023/02/20 00:32:29;;;;;;;10.52;5.15;;;5.90;99.90;;;;;;465665;255;29031;-81
2023/02/20 00:34:30;;;;;;;8.77;4.55;;;5.90;99.90;;;;;;466170;255;28145;-81
2023/02/20 00:36:31;;;;;;;4.97;3.80;;;5.90;99.90;;;;;;466123;255;28029;-81
2023/02/20 00:38:33;;;;;;;4.87;3.72;;;5.90;99.90;;;;;;466219;255;27638;-78
2023/02/20 00:40:34;;;;;;;6.20;3.65;;;5.90;99.90;;;;;;466117;255;27677;-79
2023/02/20 00:42:35;;;;;;;7.87;3.55;;;5.90;99.90;;;;;;466232;255;27546;-81
2023/02/20 00:44:37;;;;;;;8.65;4.60;;;5.80;99.90;;;;;;466235;255;27585;-78
2023/02/20 00:46:38;;;;;;;11.90;4.30;;;5.70;99.90;;;;;;466205;255;27633;-80
2023/02/20 00:48:39;;;;;;;4.87;3.87;;;5.70;99.90;;;;;;466351;253;28108;-81
2023/02/20 00:50:40;;;;;;;7.72;4.25;;;5.70;99.90;;;;;;466268;255;27623;-80
2023/02/20 00:52:42;;;;;;;5.50;3.95;;;5.70;99.90;;;;;;466328;250;27554;-81
2023/02/20 00:54:43;;;;;;;5.60;3.50;;;5.70;99.90;;;;;;466202;255;27542;-81
2023/02/20 00:56:44;;;;;;;9.77;4.95;;;5.80;99.90;;;;;;466251;255;27538;-81
2023/02/20 00:58:45;;;;;;;5.65;4.15;;;5.70;99.90;;;;;;466195;255;27462;-78
2023/02/20 01:00:47;;;;;;;8.07;4.45;;;5.70;99.90;;;;;;466256;255;28045;-80
2023/02/20 01:02:48;;;;;;;7.72;3.97;;;5.80;99.90;;;;;;466210;255;28008;-81
2023/02/20 01:04:49;;;;;;;6.47;4.18;;;5.80;99.90;;;;;;466249;255;27586;-81
2023/02/20 01:06:50;;;;;;;6.97;4.50;;;5.80;99.90;;;;;;466263;255;27572;-78
2023/02/20 01:08:52;;;;;;;8.68;5.15;;;5.80;99.90;;;;;;466129;255;27549;-82
2023/02/20 01:10:53;;;;;;;8.77;4.35;;;5.80;99.90;;;;;;466223;255;27518;-81
2023/02/20 01:12:54;;;;;;;12.27;5.18;;;5.80;99.90;;;;;;466252;255;27561;-80
2023/02/20 01:14:55;;;;;;;8.50;5.22;;;5.70;99.90;;;;;;466233;255;28076;-79
2023/02/20 01:16:57;;;;;;;9.45;5.22;;;5.70;99.90;;;;;;466212;254;28074;-81
2023/02/20 01:18:58;;;;;;;8.90;4.85;;;5.60;99.90;;;;;;466225;255;27527;-80
2023/02/20 01:20:59;;;;;;;6.40;5.37;;;5.60;99.90;;;;;;466217;255;27632;-81
2023/02/20 01:23:00;;;;;;;11.98;4.80;;;5.60;99.90;;;;;;466204;255;27644;-81
2023/02/20 01:25:02;;;;;;;9.57;5.55;;;5.50;99.90;;;;;;466202;255;27601;-79
2023/02/20 01:27:03;;;;;;;9.63;4.55;;;5.50;99.90;;;;;;466190;255;27628;-77
2023/02/20 01:29:04;;;;;;;14.95;6.00;;;5.50;99.90;;;;;;466212;255;28091;-78
2023/02/20 01:31:05;;;;;;;9.35;5.62;;;5.50;99.90;;;;;;466210;255;27486;-77
2023/02/20 01:33:07;;;;;;;7.40;4.65;;;5.50;99.90;;;;;;466199;255;27641;-81
2023/02/20 01:35:08;;;;;;;5.20;4.35;;;5.50;99.90;;;;;;466206;255;27569;-81
2023/02/20 01:37:09;;;;;;;6.75;4.40;;;5.50;99.90;;;;;;466238;253;27933;-80
2023/02/20 01:39:10;;;;;;;11.48;4.85;;;5.50;99.90;;;;;;466225;255;27615;-78
2023/02/20 01:41:12;;;;;;;9.15;5.12;;;5.50;99.90;;;;;;466295;253;27673;-79
2023/02/20 01:43:13;;;;;;;8.15;4.45;;;5.50;99.90;;;;;;466212;255;28002;-81
2023/02/20 01:45:14;;;;;;;11.40;5.87;;;5.40;99.90;;;;;;466181;255;28220;-78
2023/02/20 01:47:16;;;;;;;7.45;5.45;;;5.40;99.90;;;;;;466216;255;27493;-79
2023/02/20 01:49:17;;;;;;;8.32;5.00;;;5.40;99.90;;;;;;466428;253;27638;-79
2023/02/20 01:51:18;;;;;;;6.80;5.00;;;5.30;99.90;;;;;;466233;255;27584;-78
2023/02/20 01:53:19;;;;;;;9.07;5.25;;;5.40;99.90;;;;;;466175;255;27529;-79
2023/02/20 01:55:21;;;;;;;7.85;5.15;;;5.30;99.90;;;;;;466251;255;27634;-81
2023/02/20 01:57:22;;;;;;;9.10;4.50;;;5.30;99.90;;;;;;466097;255;28096;-80
2023/02/20 01:59:23;;;;;;;10.63;5.07;;;5.30;99.90;;;;;;466249;255;28072;-81
2023/02/20 02:01:24;;;;;;;7.55;4.95;;;5.30;99.90;;;;;;466065;255;27596;-82
2023/02/20 02:03:26;;;;;;;9.30;5.12;;;5.30;99.90;;;;;;466107;255;27535;-78
2023/02/20 02:05:27;;;;;;;12.40;6.10;;;5.30;99.90;;;;;;466248;254;27621;-81
2023/02/20 02:07:28;;;;;;;7.00;4.90;;;5.20;99.90;;;;;;466155;255;27580;-78
2023/02/20 02:09:29;;;;;;;9.70;5.10;;;5.20;99.90;;;;;;466223;255;28144;-77
2023/02/20 02:11:31;;;;;;;10.73;5.37;;;5.20;99.90;;;;;;466150;255;28061;-80
2023/02/20 02:13:32;;;;;;;8.95;4.45;;;5.20;99.90;;;;;;466213;255;27625;-82
2023/02/20 02:15:33;;;;;;;7.85;5.80;;;5.10;99.90;;;;;;466217;255;27577;-82
2023/02/20 02:17:34;;;;;;;10.30;5.53;;;5.10;99.90;;;;;;466217;255;27687;-80
2023/02/20 02:19:36;;;;;;;11.40;5.65;;;5.10;99.90;;;;;;466195;255;27572;-78
2023/02/20 02:21:37;;;;;;;6.62;4.65;;;5.10;99.90;;;;;;466198;255;27723;-78
2023/02/20 02:23:38;;;;;;;10.32;5.97;;;5.10;99.90;;;;;;466203;255;28101;-79
2023/02/20 02:25:39;;;;;;;10.88;6.28;;;5.00;99.90;;;;;;466203;255;28087;-77
2023/02/20 02:27:41;;;;;;;7.07;5.25;;;5.00;99.90;;;;;;466152;255;27713;-78
2023/02/20 02:29:42;;;;;;;8.07;5.43;;;5.00;99.90;;;;;;466195;255;27729;-79
2023/02/20 02:31:43;;;;;;;10.88;5.90;;;5.00;99.90;;;;;;466214;255;27582;-78
2023/02/20 02:33:44;;;;;;;9.40;5.43;;;5.00;99.90;;;;;;465892;255;27545;-79
2023/02/20 02:35:46;;;;;;;9.07;5.55;;;4.90;99.90;;;;;;466185;255;27596;-80
2023/02/20 02:37:47;;;;;;;8.75;5.78;;;4.90;99.90;;;;;;466151;255;28006;-79
2023/02/20 02:39:48;;;;;;;12.27;6.35;;;4.90;99.90;;;;;;466259;255;28103;-78
2023/02/20 02:41:50;;;;;;;11.52;5.57;;;4.90;99.90;;;;;;466277;255;27585;-79
2023/02/20 02:43:51;;;;;;;9.00;5.00;;;4.90;99.90;;;;;;466205;255;27589;-81
2023/02/20 02:45:52;;;;;;;12.35;6.25;;;4.90;99.90;;;;;;466204;255;27613;-81
2023/02/20 02:47:53;;;;;;;7.40;4.90;;;4.90;99.90;;;;;;465337;255;27654;-78
2023/02/20 02:49:55;;;;;;;8.95;6.45;;;4.90;99.90;;;;;;466211;255;27545;-78
2023/02/20 02:51:56;;;;;;;13.10;5.82;;;4.90;99.90;;;;;;466252;255;27581;-81
2023/02/20 02:53:57;;;;;;;13.32;5.20;;;4.90;99.90;;;;;;466229;255;28013;-79
2023/02/20 02:56:20;;;;;;;12.25;6.28;;;4.90;99.90;;;;;;466302;255;27566;-80
2023/02/20 02:58:00;;;;;;;15.60;6.87;;;4.90;99.90;;;;;;466251;255;27577;-78
2023/02/20 03:00:01;;;;;;;16.15;7.25;;;4.90;99.90;;;;;;466261;255;27707;-78
2023/02/20 03:02:02;;;;;;;12.13;6.40;;;4.90;99.90;;;;;;466242;255;27658;-78
2023/02/20 03:04:05;;;;;;;14.13;7.10;;;4.90;99.90;;;;;;466290;255;27461;-77
2023/02/20 03:06:05;;;;;;;12.23;6.72;;;4.90;99.90;;;;;;466219;255;28887;-80
2023/02/20 03:08:13;;;;;;;15.00;5.97;;;4.80;99.90;;;;;;466231;255;28117;-77
2023/02/20 03:10:07;;;;;;;9.30;5.90;;;4.80;99.90;;;;;;466273;255;27555;-78
2023/02/20 03:12:08;;;;;;;10.43;6.18;;;4.80;99.90;;;;;;466271;255;27585;-78
2023/02/20 03:16:29;;;;;;;9.23;6.25;;;4.70;99.90;;;;;;466323;253;28017;-79
2023/02/20 03:18:30;;;;;;;10.55;6.10;;;4.70;99.90;;;;;;466234;254;28255;-82
2023/02/20 03:20:32;;;;;;;17.40;8.13;;;4.80;99.90;;;;;;466226;255;27649;-80
2023/02/20 03:22:33;;;;;;;11.18;6.20;;;4.70;99.90;;;;;;466261;255;27580;-78
2023/02/20 03:24:53;;;;;;;13.15;6.22;;;4.70;99.90;;;;;;466303;253;27952;-79
2023/02/20 03:26:35;;;;;;;9.02;6.05;;;4.80;99.90;;;;;;466295;255;27615;-81
2023/02/20 03:28:37;;;;;;;10.05;5.53;;;4.70;99.90;;;;;;466277;255;27596;-80
2023/02/20 03:30:38;;;;;;;11.48;6.68;;;4.70;99.90;;;;;;466341;255;28054;-80
2023/02/20 03:44:17;;;;;;;9.95;5.87;;;4.60;99.90;;;;;;466309;253;28065;-80
2023/02/20 03:46:19;;;;;;;16.25;8.00;;;4.60;99.90;;;;;;466248;255;27986;-79
2023/02/20 03:48:19;;;;;;;15.90;7.28;;;4.60;99.90;;;;;;466034;255;27635;-78
2023/02/20 03:52:40;;;;;;;9.70;6.30;;;4.60;99.90;;;;;;466381;253;27554;-78
2023/02/20 03:54:41;;;;;;;16.33;7.55;;;4.60;99.90;;;;;;466183;255;27581;-78
2023/02/20 03:56:43;;;;;;;11.82;7.10;;;4.60;99.90;;;;;;466240;255;27537;-80
2023/02/20 03:58:44;;;;;;;10.80;6.45;;;4.60;99.90;;;;;;466309;255;28010;-81
2023/02/20 04:00:45;;;;;;;13.68;7.78;;;4.60;99.90;;;;;;465940;255;28044;-81
2023/02/20 04:02:46;;;;;;;13.25;7.43;;;4.60;99.90;;;;;;466267;255;27711;-81
2023/02/20 04:04:48;;;;;;;15.00;7.50;;;4.60;99.90;;;;;;466259;255;27545;-79
2023/02/20 04:06:49;;;;;;;11.43;7.18;;;4.60;99.90;;;;;;466238;255;27549;-80
2023/02/20 04:08:50;;;;;;;13.62;6.60;;;4.70;99.90;;;;;;465941;255;27561;-79
2023/02/20 04:10:51;;;;;;;12.93;7.70;;;4.70;99.90;;;;;;466236;255;27686;-80
2023/02/20 04:12:53;;;;;;;12.32;7.35;;;4.70;99.90;;;;;;466529;253;28066;-79
2023/02/20 04:14:54;;;;;;;8.00;5.25;;;4.60;99.90;;;;;;466272;255;27569;-81
2023/02/20 04:16:55;;;;;;;11.95;7.10;;;4.60;99.90;;;;;;466345;253;27562;-80
2023/02/20 04:18:56;;;;;;;14.73;7.12;;;4.60;99.90;;;;;;466300;255;27567;-79
2023/02/20 04:20:58;;;;;;;11.52;6.55;;;4.60;99.90;;;;;;466242;255;27681;-80
2023/02/20 04:22:59;;;;;;;18.37;8.20;;;4.60;99.90;;;;;;466300;255;27558;-78
2023/02/20 04:25:00;;;;;;;13.30;7.97;;;4.60;99.90;;;;;;466300;255;27611;-80
2023/02/20 04:27:02;;;;;;;13.10;7.70;;;4.60;99.90;;;;;;466313;255;28162;-79
2023/02/20 04:29:03;;;;;;;12.75;7.07;;;4.60;99.90;;;;;;466285;255;27621;-78
2023/02/20 04:31:04;;;;;;;15.05;8.60;;;4.60;99.90;;;;;;466259;255;27727;-78
2023/02/20 04:33:05;;;;;;;11.38;7.07;;;4.60;99.90;;;;;;466252;255;27590;-77
2023/02/20 04:35:07;;;;;;;16.75;8.43;;;4.60;99.90;;;;;;466230;255;27664;-80
2023/02/20 04:37:08;;;;;;;13.82;7.55;;;4.60;99.90;;;;;;466288;255;27629;-81
2023/02/20 04:39:09;;;;;;;13.45;7.25;;;4.60;99.90;;;;;;466248;255;27556;-79
2023/02/20 04:41:10;;;;;;;18.00;7.50;;;4.50;99.90;;;;;;466148;255;28157;-79
2023/02/20 04:43:12;;;;;;;15.40;6.85;;;4.60;99.90;;;;;;466283;255;28059;-79
2023/02/20 04:45:13;;;;;;;17.35;7.45;;;4.60;99.90;;;;;;466229;255;27555;-77
2023/02/20 04:47:14;;;;;;;9.80;6.43;;;4.60;99.90;;;;;;466249;255;27578;-79
2023/02/20 04:49:15;;;;;;;15.30;7.30;;;4.60;99.90;;;;;;466034;255;27573;-77
2023/02/20 04:51:17;;;;;;;10.60;6.53;;;4.60;99.90;;;;;;466202;255;27674;-78
2023/02/20 04:53:18;;;;;;;14.13;6.37;;;4.60;99.90;;;;;;466261;255;27542;-79
2023/02/20 04:55:19;;;;;;;9.65;6.30;;;4.60;99.90;;;;;;466319;253;28114;-80
2023/02/20 04:57:21;;;;;;;10.45;6.72;;;4.60;99.90;;;;;;466267;255;28091;-77
2023/02/20 04:59:22;;;;;;;10.43;6.60;;;4.60;99.90;;;;;;466004;255;28095;-82
2023/02/20 05:01:23;;;;;;;16.12;7.15;;;4.70;99.90;;;;;;466266;255;27617;-81
2023/02/20 05:03:24;;;;;;;18.90;7.65;;;4.70;99.90;;;;;;466252;255;27582;-78
2023/02/20 05:05:25;;;;;;;12.75;6.22;;;4.60;99.90;;;;;;466263;255;27654;-78
2023/02/20 05:07:27;;;;;;;11.23;6.75;;;4.60;99.90;;;;;;466307;255;27725;-79
2023/02/20 05:09:28;;;;;;;15.88;6.70;;;4.50;99.90;;;;;;466221;255;27636;-80
2023/02/20 05:11:29;;;;;;;12.55;6.78;;;4.50;99.90;;;;;;466207;255;28170;-79
2023/02/20 05:13:30;;;;;;;11.77;6.75;;;4.50;99.90;;;;;;466240;255;28153;-78
2023/02/20 05:15:32;;;;;;;22.73;7.35;;;4.50;99.90;;;;;;466260;255;27697;-78
2023/02/20 05:17:33;;;;;;;25.90;8.07;;;4.50;99.90;;;;;;466232;255;27592;-79
2023/02/20 05:19:34;;;;;;;16.33;6.60;;;4.50;99.90;;;;;;466204;255;27546;-81
2023/02/20 05:23:55;;;;;;;9.68;6.50;;;4.40;99.90;;;;;;466529;253;27578;-79
2023/02/20 05:25:56;;;;;;;11.95;8.05;;;4.40;99.90;;;;;;466250;255;27553;-81
2023/02/20 05:27:58;;;;;;;11.70;6.20;;;4.40;99.90;;;;;;466282;255;28058;-78
2023/02/20 05:29:59;;;;;;;15.38;8.05;;;4.50;99.90;;;;;;466216;255;28148;-77
2023/02/20 05:32:00;;;;;;;12.27;7.45;;;4.50;99.90;;;;;;466290;255;27535;-77
2023/02/20 05:34:01;;;;;;;12.20;8.25;;;4.50;99.90;;;;;;466301;253;27628;-78
2023/02/20 05:36:03;;;;;;;17.83;8.00;;;4.50;99.90;;;;;;466228;255;27543;-79
2023/02/20 05:38:04;;;;;;;18.42;8.98;;;4.50;99.90;;;;;;466246;255;27546;-78
2023/02/20 05:40:05;;;;;;;16.67;8.70;;;4.50;99.90;;;;;;466378;253;27564;-79
2023/02/20 05:42:06;;;;;;;11.50;6.50;;;4.50;99.90;;;;;;466252;255;28011;-79
2023/02/20 05:44:08;;;;;;;16.87;8.85;;;4.50;99.90;;;;;;466276;255;27600;-78
2023/02/20 05:46:09;;;;;;;13.23;7.57;;;4.40;99.90;;;;;;466277;255;27560;-79
2023/02/20 05:48:10;;;;;;;23.00;9.02;;;4.40;99.90;;;;;;466249;255;27580;-80
2023/02/20 05:50:11;;;;;;;9.70;7.75;;;4.40;99.90;;;;;;466289;255;28083;-77
2023/02/20 05:52:13;;;;;;;11.45;6.95;;;4.40;99.90;;;;;;466272;255;27573;-79
2023/02/20 05:54:14;;;;;;;13.25;7.72;;;4.40;99.90;;;;;;466291;255;27593;-78
2023/02/20 05:56:15;;;;;;;14.10;8.98;;;4.40;99.90;;;;;;466276;255;28016;-80
2023/02/20 05:58:16;;;;;;;17.12;9.60;;;4.30;99.90;;;;;;466225;255;28167;-78
2023/02/20 06:00:18;;;;;;;15.40;8.73;;;4.30;99.90;;;;;;466278;255;27684;-80
2023/02/20 06:02:19;;;;;;;12.23;7.55;;;4.30;99.90;;;;;;466297;255;27705;-79
2023/02/20 06:04:20;;;;;;;16.33;9.27;;;4.20;99.90;;;;;;466239;255;27684;-81
2023/02/20 06:06:21;;;;;;;13.18;7.90;;;4.20;99.90;;;;;;466177;255;27605;-81
2023/02/20 06:08:23;;;;;;;14.98;9.07;;;4.30;99.90;;;;;;466274;255;27628;-82
2023/02/20 06:10:24;;;;;;;10.80;7.97;;;4.20;99.90;;;;;;466233;255;27586;-80
2023/02/20 06:12:25;;;;;;;13.75;7.87;;;4.20;99.90;;;;;;466284;255;28010;-78
2023/02/20 06:14:26;;;;;;;9.88;7.70;;;4.20;99.90;;;;;;466289;255;28078;-78
2023/02/20 06:16:28;;;;;;;16.62;8.20;;;4.20;99.90;;;;;;466273;255;27538;-78
2023/02/20 06:18:29;;;;;;;17.77;10.45;;;4.20;99.90;;;;;;466280;255;27605;-78
2023/02/20 06:20:30;;;;;;;14.50;9.68;;;4.20;99.90;;;;;;465962;252;27569;-78
2023/02/20 06:22:32;;;;;;;12.75;8.85;;;4.20;99.90;;;;;;466303;255;27713;-78
2023/02/20 06:24:33;;;;;;;17.83;9.35;;;4.10;99.90;;;;;;466277;255;27578;-78
2023/02/20 06:26:34;;;;;;;17.92;9.45;;;4.20;99.90;;;;;;466249;255;28010;-79
2023/02/20 06:28:35;;;;;;;17.30;8.82;;;4.20;99.90;;;;;;466239;255;28025;-78
2023/02/20 06:30:37;;;;;;;18.50;10.25;;;4.20;99.90;;;;;;466284;255;27606;-80
2023/02/20 06:32:38;;;;;;;15.20;8.50;;;4.20;99.90;;;;;;466264;255;27545;-78
2023/02/20 06:34:39;;;;;;;18.33;9.50;;;4.20;99.90;;;;;;466214;255;27608;-79
2023/02/20 06:36:40;;;;;;;12.32;8.85;;;4.10;99.90;;;;;;466182;255;27550;-81
2023/02/20 06:38:42;;;;;;;16.83;9.90;;;4.10;99.90;;;;;;466159;255;27595;-78
2023/02/20 06:40:43;;;;;;;21.40;10.90;;;4.10;99.90;;;;;;466215;255;28977;-78
2023/02/20 06:42:44;;;;;;;21.20;11.30;;;4.20;99.90;;;;;;466239;255;27989;-78
2023/02/20 06:44:45;;;;;;;24.75;14.98;;;4.10;99.90;;;;;;466209;255;27613;-80
2023/02/20 06:46:47;;;;;;;17.15;10.20;;;4.10;99.90;;;;;;466241;255;27546;-79
2023/02/20 06:48:48;;;;;;;22.60;12.77;;;4.10;99.90;;;;;;466215;255;27692;-78
2023/02/20 06:50:54;;;;;;;17.35;10.40;;;4.10;99.90;;;;;;466276;255;27565;-79
2023/02/20 06:52:50;;;;;;;27.20;13.80;;;4.20;99.90;;;;;;466333;255;28026;-79
2023/02/20 06:54:53;;;;;;;30.37;13.05;;;4.20;99.90;;;;;;466296;255;28174;-78
2023/02/20 06:56:53;;;;;;;22.35;11.55;;;4.20;99.90;;;;;;466290;254;27624;-78
2023/02/20 06:58:54;;;;;;;20.95;11.55;;;4.20;99.90;;;;;;466273;255;27676;-79
2023/02/20 07:00:55;;;;;;;20.17;13.05;;;4.20;99.90;;;;;;466304;255;27954;-78
2023/02/20 07:02:57;;;;;;;21.90;12.23;;;4.20;99.90;;;;;;466290;255;27538;-79
2023/02/20 07:04:58;;;;;;;21.85;10.40;;;4.20;99.90;;;;;;466307;255;28015;-78
2023/02/20 07:07:00;;;;;;;19.23;10.77;;;4.20;99.90;;;;;;466304;255;28033;-80
2023/02/20 07:09:00;;;;;;;18.67;10.52;;;4.20;99.90;;;;;;466260;255;29619;-78
2023/02/20 07:11:02;;;;;;;18.35;11.20;;;4.20;99.90;;;;;;466200;255;27587;-78
2023/02/20 07:13:05;;;;;;;17.73;10.35;;;4.30;99.90;;;;;;466298;255;27639;-81
2023/02/20 07:15:04;;;;;;;20.37;10.75;;;4.30;99.90;;;;;;466295;255;27585;-79
2023/02/20 07:17:06;;;;;;;21.15;10.82;;;4.30;99.90;;;;;;466266;255;27998;-79
2023/02/20 07:19:07;;;;;;;19.40;11.43;;;4.30;99.90;;;;;;466293;255;28021;-79
2023/02/20 07:21:08;;;;;;;18.62;11.38;;;4.30;99.90;;;;;;466353;255;27614;-81
2023/02/20 07:23:09;;;;;;;25.62;12.55;;;4.40;99.90;;;;;;466311;255;27554;-78
2023/02/20 07:25:11;;;;;;;20.37;11.63;;;4.40;99.90;;;;;;466306;255;27585;-78
2023/02/20 07:27:12;;;;;;;19.30;10.90;;;4.40;99.90;;;;;;466299;255;27589;-78
2023/02/20 07:29:13;;;;;;;24.63;11.93;;;4.40;99.90;;;;;;466224;255;28088;-78
2023/02/20 07:31:14;;;;;;;23.35;12.00;;;4.50;99.90;;;;;;466234;255;28079;-79
2023/02/20 07:33:16;;;;;;;20.45;10.75;;;4.50;99.90;;;;;;466278;255;27549;-77
2023/02/20 07:35:17;;;;;;;20.42;10.70;;;4.60;99.90;;;;;;466232;255;27701;-77
2023/02/20 07:37:18;;;;;;;19.83;10.05;;;4.60;99.90;;;;;;466211;255;27542;-82
2023/02/20 07:39:20;;;;;;;21.60;11.50;;;4.60;99.90;;;;;;466052;255;27666;-78
2023/02/20 07:41:21;;;;;;;15.70;9.60;;;4.70;99.90;;;;;;466241;255;28144;-79
2023/02/20 07:43:22;;;;;;;18.05;9.63;;;4.80;99.90;;;;;;466280;254;28240;-81
2023/02/20 07:45:23;;;;;;;16.33;10.60;;;4.80;99.90;;;;;;466295;255;27589;-78
2023/02/20 07:47:24;;;;;;;19.58;10.48;;;4.90;99.90;;;;;;466298;253;27538;-80
2023/02/20 07:49:26;;;;;;;19.92;11.40;;;4.90;99.90;;;;;;466194;255;27545;-80
2023/02/20 07:51:27;;;;;;;16.00;10.73;;;4.90;99.90;;;;;;466277;255;27574;-80
2023/02/20 07:53:28;;;;;;;18.05;10.35;;;4.90;99.90;;;;;;466213;255;28006;-80
2023/02/20 07:55:30;;;;;;;24.75;11.98;;;5.00;99.90;;;;;;466258;255;27600;-80
2023/02/20 07:57:31;;;;;;;15.35;10.23;;;5.00;99.90;;;;;;466279;255;27582;-78
2023/02/20 07:59:32;;;;;;;20.02;11.10;;;5.00;99.90;;;;;;466205;255;27586;-81
2023/02/20 08:01:33;;;;;;;22.85;11.82;;;5.00;99.90;;;;;;466208;255;27668;-81
2023/02/20 08:03:35;;;;;;;16.83;10.88;;;5.10;99.90;;;;;;466213;255;27986;-81
2023/02/20 08:05:36;;;;;;;22.25;10.48;;;5.10;99.90;;;;;;466201;255;28064;-81
2023/02/20 08:07:37;;;;;;;16.35;10.77;;;5.10;99.90;;;;;;466167;255;27578;-81
2023/02/20 08:09:38;;;;;;;17.17;10.52;;;5.20;99.90;;;;;;466181;255;27691;-80
2023/02/20 08:11:40;;;;;;;17.48;10.07;;;5.30;99.90;;;;;;466236;255;27586;-81
2023/02/20 08:13:41;;;;;;;12.95;8.98;;;5.30;99.90;;;;;;465804;255;27571;-80
2023/02/20 08:15:43;;;;;;;20.42;9.30;;;5.40;99.90;;;;;;465258;255;28462;-81
2023/02/20 08:17:44;;;;;;;17.85;11.02;;;5.40;99.90;;;;;;466219;253;27584;-81
2023/02/20 08:19:45;;;;;;;19.80;11.43;;;5.40;99.90;;;;;;466196;255;27546;-81
2023/02/20 08:21:46;;;;;;;13.70;8.75;;;5.40;99.90;;;;;;466258;253;27581;-79
2023/02/20 08:23:47;;;;;;;20.37;10.68;;;5.50;99.90;;;;;;466187;255;27541;-81
2023/02/20 08:25:48;;;;;;;27.77;11.85;;;5.50;99.90;;;;;;466326;253;28065;-81
2023/02/20 08:27:50;;;;;;;16.67;9.38;;;5.50;99.90;;;;;;466253;255;28068;-80
2023/02/20 08:29:51;;;;;;;18.50;10.73;;;5.50;99.90;;;;;;466239;255;27554;-80
2023/02/20 08:31:52;;;;;;;22.73;9.55;;;5.60;99.90;;;;;;466176;255;27584;-81
2023/02/20 08:33:53;;;;;;;20.17;9.35;;;5.60;99.90;;;;;;466230;255;27636;-81
2023/02/20 08:35:56;;;;;;;19.10;10.98;;;5.60;99.90;;;;;;466195;253;28084;-81
2023/02/20 08:37:56;;;;;;;14.93;8.63;;;5.60;99.90;;;;;;466255;253;28057;-81
2023/02/20 08:39:57;;;;;;;18.12;9.50;;;5.70;99.90;;;;;;465918;253;27640;-80
2023/02/20 08:41:59;;;;;;;18.48;11.12;;;5.80;99.90;;;;;;466322;253;27578;-82
2023/02/20 08:44:00;;;;;;;15.38;10.15;;;5.80;99.90;;;;;;466267;255;27549;-81
2023/02/20 08:46:01;;;;;;;18.70;11.12;;;5.90;99.90;;;;;;466283;255;27669;-82
2023/02/20 08:48:02;;;;;;;20.92;10.40;;;5.90;99.90;;;;;;466294;255;28060;-81
2023/02/20 08:50:04;;;;;;;24.10;10.68;;;5.90;99.90;;;;;;466282;255;27580;-81
2023/02/20 08:52:05;;;;;;;16.75;9.73;;;5.90;99.90;;;;;;466233;255;27662;-81
2023/02/20 08:54:06;;;;;;;34.35;12.27;;;5.90;99.90;;;;;;466262;255;27569;-80
2023/02/20 08:56:08;;;;;;;18.43;9.73;;;5.90;99.90;;;;;;466225;255;28046;-80
2023/02/20 08:58:09;;;;;;;18.98;10.70;;;5.90;99.90;;;;;;466311;255;28090;-82
2023/02/20 09:00:10;;;;;;;20.25;10.70;;;5.90;99.90;;;;;;466235;255;27637;-81
2023/02/20 09:02:11;;;;;;;18.00;10.77;;;5.90;99.90;;;;;;466263;255;27672;-82
2023/02/20 09:04:12;;;;;;;23.92;12.45;;;6.00;99.90;;;;;;466262;255;27681;-81
2023/02/20 09:06:14;;;;;;;36.35;11.82;;;6.00;99.90;;;;;;466006;255;28039;-81
2023/02/20 09:08:15;;;;;;;17.40;10.85;;;6.10;99.90;;;;;;466291;255;28068;-80
2023/02/20 09:10:16;;;;;;;17.93;10.73;;;6.10;99.90;;;;;;466235;255;27550;-80
2023/02/20 09:12:18;;;;;;;15.95;9.23;;;6.20;99.90;;;;;;466513;253;28799;-81
2023/02/20 09:14:19;;;;;;;23.20;11.10;;;6.20;99.90;;;;;;466308;255;27983;-81
2023/02/20 09:16:20;;;;;;;25.60;11.10;;;6.30;99.90;;;;;;466297;255;27894;-81
2023/02/20 09:18:21;;;;;;;23.03;11.37;;;6.40;99.90;;;;;;465998;255;29457;-80
2023/02/20 09:20:23;;;;;;;26.13;12.57;;;6.40;99.90;;;;;;466211;255;29433;-79
2023/02/20 09:22:24;;;;;;;25.20;12.70;;;6.50;99.90;;;;;;466148;255;29014;-81
2023/02/20 09:24:30;;;;;;;26.30;12.77;;;6.50;99.90;;;;;;466239;255;28293;-85
2023/02/20 09:26:26;;;;;;;18.93;12.50;;;6.50;99.90;;;;;;466273;255;28895;-80
2023/02/20 09:28:28;;;;;;;29.00;14.20;;;6.50;99.90;;;;;;466274;255;29100;-82
2023/02/20 09:30:29;;;;;;;25.73;12.53;;;6.60;99.90;;;;;;466232;255;28392;-80
2023/02/20 09:32:30;;;;;;;23.83;13.90;;;6.60;99.90;;;;;;466085;255;28136;-82
2023/02/20 09:34:31;;;;;;;23.90;13.23;;;6.70;99.90;;;;;;466232;255;27909;-81
2023/02/20 09:36:33;;;;;;;25.03;13.93;;;6.70;99.90;;;;;;466245;255;28527;-80
2023/02/20 09:38:34;;;;;;;23.43;12.60;;;6.80;99.90;;;;;;466276;255;28613;-82
2023/02/20 09:40:35;;;;;;;25.27;13.60;;;6.90;99.90;;;;;;466302;255;28005;-81
2023/02/20 09:42:36;;;;;;;21.60;12.70;;;7.00;99.90;;;;;;466271;255;28148;-81
2023/02/20 09:44:38;;;;;;;21.43;12.00;;;7.00;99.90;;;;;;466142;255;28963;-80
2023/02/20 09:46:39;;;;;;;23.67;12.93;;;7.00;99.90;;;;;;466191;255;28159;-81
2023/02/20 09:48:40;;;;;;;25.63;12.63;;;7.10;99.90;;;;;;466168;255;27827;-81
2023/02/20 09:50:42;;;;;;;27.33;12.80;;;7.10;99.90;;;;;;466161;255;28167;-81
2023/02/20 09:52:43;;;;;;;24.73;13.00;;;7.10;99.90;;;;;;466183;255;27596;-81
2023/02/20 09:54:44;;;;;;;28.40;13.10;;;7.20;99.90;;;;;;466171;255;28561;-81
2023/02/20 09:56:45;;;;;;;23.07;12.00;;;7.30;99.90;;;;;;466206;255;28420;-80
2023/02/20 09:58:46;;;;;;;31.13;13.03;;;7.40;99.90;;;;;;466188;255;28433;-81
2023/02/20 10:00:48;;;;;;;21.83;12.43;;;7.50;99.90;;;;;;466192;255;27662;-82
2023/02/20 10:02:49;;;;;;;16.17;11.60;;;7.60;99.90;;;;;;466118;255;28071;-81
2023/02/20 10:04:50;;;;;;;19.67;11.70;;;7.70;99.90;;;;;;466175;255;27918;-81
2023/02/20 10:06:51;;;;;;;24.00;12.40;;;7.70;99.90;;;;;;466226;255;27914;-82
2023/02/20 10:08:53;;;;;;;18.70;10.70;;;7.70;99.90;;;;;;466213;255;28104;-81
2023/02/20 10:10:54;;;;;;;27.87;11.83;;;7.80;99.90;;;;;;466243;253;27914;-81
2023/02/20 10:12:55;;;;;;;25.10;12.60;;;7.80;99.90;;;;;;466191;255;28384;-81
2023/02/20 10:14:56;;;;;;;18.23;11.00;;;7.70;99.90;;;;;;466201;254;28334;-81
2023/02/20 10:16:58;;;;;;;23.90;12.40;;;7.70;99.90;;;;;;466186;255;28325;-82
2023/02/20 10:18:59;;;;;;;24.03;11.43;;;7.70;99.90;;;;;;466096;255;28047;-80
2023/02/20 10:21:00;;;;;;;23.47;11.50;;;7.60;99.90;;;;;;466236;255;28137;-81
2023/02/20 10:23:02;;;;;;;27.27;11.70;;;7.70;99.90;;;;;;466271;255;27835;-81
2023/02/20 10:25:03;;;;;;;24.47;12.10;;;7.80;99.90;;;;;;466134;251;27829;-81
2023/02/20 10:27:04;;;;;;;22.00;11.53;;;7.80;99.90;;;;;;466157;255;27752;-81
2023/02/20 10:29:05;;;;;;;24.60;11.50;;;7.90;99.90;;;;;;466242;255;28055;-81
2023/02/20 10:31:06;;;;;;;17.43;10.00;;;7.90;99.90;;;;;;466233;255;27782;-82
2023/02/20 10:33:08;;;;;;;22.23;10.60;;;7.90;99.90;;;;;;466233;255;28426;-81
2023/02/20 10:35:09;;;;;;;21.20;11.00;;;7.90;99.90;;;;;;466220;255;28288;-82
2023/02/20 10:37:10;;;;;;;24.03;10.50;;;7.90;99.90;;;;;;465933;255;28103;-81
2023/02/20 10:39:11;;;;;;;22.17;11.67;;;8.00;99.90;;;;;;466200;255;28199;-80
2023/02/20 10:41:13;;;;;;;24.73;12.77;;;8.00;99.90;;;;;;466196;255;28179;-81
2023/02/20 10:43:14;;;;;;;25.43;10.93;;;8.10;99.90;;;;;;466215;255;28071;-81
2023/02/20 10:45:15;;;;;;;26.73;11.10;;;8.10;99.90;;;;;;466191;255;28089;-81
2023/02/20 10:47:16;;;;;;;22.63;10.93;;;8.20;99.90;;;;;;466218;255;28028;-81